Time,TemperatureF,DewpointF,PressureIn,WindDirection,WindDirectionDegrees,WindSpeedMPH,WindSpeedGustMPH,Humidity,HourlyPrecipIn,Conditions,Clouds,dailyrainin,SoftwareType,DateUTC
2013-02-12 00:02:00,-1.7,-5.6,30.51,ENE,64,0.0,4.0,83,0.00,,,0.00,meteohub,2013-02-12 07:02:00,
2013-02-12 00:07:00,-1.8,-6.2,30.52,ESE,117,0.0,4.0,81,0.00,,,0.00,meteohub,2013-02-12 07:07:00,
2013-02-12 00:12:00,-2.4,-7.1,30.52,ESE,117,1.0,4.0,80,0.00,,,0.00,meteohub,2013-02-12 07:12:00,
2013-02-12 00:17:00,-2.9,-7.6,30.52,East,101,1.0,3.0,80,0.00,,,0.00,meteohub,2013-02-12 07:17:00,
2013-02-12 00:22:00,-3.5,-8.1,30.52,East,101,0.0,2.0,80,0.00,,,0.00,meteohub,2013-02-12 07:22:00,
2013-02-12 00:27:00,-3.6,-8.3,30.52,East,101,0.0,1.0,80,0.00,,,0.00,meteohub,2013-02-12 07:27:00,
2013-02-12 00:32:00,-4.0,-8.3,30.53,SE,130,1.0,1.0,81,0.00,,,0.00,meteohub,2013-02-12 07:32:00,
2013-02-12 00:38:00,-4.2,-8.3,30.53,SE,130,0.0,2.0,82,0.00,,,0.00,meteohub,2013-02-12 07:38:00,
2013-02-12 00:43:00,-4.4,-8.7,30.53,SE,130,0.0,2.0,81,0.00,,,0.00,meteohub,2013-02-12 07:43:00,
2013-02-12 00:48:00,-4.7,-9.2,30.53,SE,130,0.0,2.0,80,0.00,,,0.00,meteohub,2013-02-12 07:48:00,
2013-02-12 00:53:00,-5.1,-9.6,30.53,SE,130,0.0,2.0,80,0.00,,,0.00,meteohub,2013-02-12 07:53:00,
2013-02-12 00:58:00,-5.1,-9.2,30.53,SE,130,0.0,2.0,82,0.00,,,0.00,meteohub,2013-02-12 07:58:00,
2013-02-12 01:03:00,-5.3,-9.6,30.54,SE,130,0.0,2.0,81,0.00,,,0.00,meteohub,2013-02-12 08:03:00,
2013-02-12 01:08:00,-5.4,-9.6,30.54,SE,130,0.0,1.0,82,0.00,,,0.00,meteohub,2013-02-12 08:08:00,
2013-02-12 01:13:00,-5.4,-9.8,30.54,SE,130,0.0,1.0,81,0.00,,,0.00,meteohub,2013-02-12 08:13:00,
2013-02-12 01:18:00,-5.8,-10.1,30.54,SE,130,0.0,1.0,81,0.00,,,0.00,meteohub,2013-02-12 08:18:00,
2013-02-12 01:24:00,-6.2,-10.5,30.55,SE,129,2.0,2.0,81,0.00,,,0.00,meteohub,2013-02-12 08:24:00,
2013-02-12 01:29:00,-6.5,-11.0,30.55,SE,129,0.0,2.0,80,0.00,,,0.00,meteohub,2013-02-12 08:29:00,
2013-02-12 01:34:00,-6.5,-10.5,30.55,SE,129,0.0,2.0,82,0.00,,,0.00,meteohub,2013-02-12 08:34:00,
2013-02-12 01:39:00,-6.9,-11.4,30.55,SE,129,0.0,2.0,80,0.00,,,0.00,meteohub,2013-02-12 08:39:00,
2013-02-12 01:44:00,-7.2,-11.6,30.55,SE,129,0.0,2.0,81,0.00,,,0.00,meteohub,2013-02-12 08:44:00,
2013-02-12 01:49:00,-7.8,-12.5,30.56,SE,129,1.0,1.0,79,0.00,,,0.00,meteohub,2013-02-12 08:49:00,
2013-02-12 01:54:00,-8.0,-12.5,30.56,SE,129,0.0,1.0,80,0.00,,,0.00,meteohub,2013-02-12 08:54:00,
2013-02-12 01:59:00,-8.1,-12.6,30.56,SE,129,1.0,2.0,80,0.00,,,0.00,meteohub,2013-02-12 08:59:00,
2013-02-12 02:04:00,-8.7,-13.4,30.56,SE,129,0.0,2.0,79,0.00,,,0.00,meteohub,2013-02-12 09:04:00,
2013-02-12 02:09:00,-8.9,-13.4,30.57,SE,129,0.0,2.0,80,0.00,,,0.00,meteohub,2013-02-12 09:09:00,
2013-02-12 02:14:00,-9.2,-13.7,30.57,SE,129,0.0,2.0,80,0.00,,,0.00,meteohub,2013-02-12 09:14:00,
2013-02-12 02:20:00,-9.6,-14.1,30.57,SE,129,0.0,2.0,80,0.00,,,0.00,meteohub,2013-02-12 09:20:00,
2013-02-12 02:25:00,-9.6,-13.5,30.57,SE,129,0.0,2.0,82,0.00,,,0.00,meteohub,2013-02-12 09:25:00,
2013-02-12 02:30:00,-9.6,-13.5,30.58,SE,129,0.0,2.0,82,0.00,,,0.00,meteohub,2013-02-12 09:30:00,
2013-02-12 02:35:00,-9.8,-13.9,30.58,SE,129,0.0,2.0,81,0.00,,,0.00,meteohub,2013-02-12 09:35:00,
2013-02-12 02:40:00,-9.6,-13.4,30.58,SE,129,1.0,2.0,83,0.00,,,0.00,meteohub,2013-02-12 09:40:00,
2013-02-12 02:45:00,-9.2,-13.0,30.58,SE,129,0.0,2.0,83,0.00,,,0.00,meteohub,2013-02-12 09:45:00,
2013-02-12 02:50:00,-9.2,-13.0,30.58,SE,129,0.0,2.0,83,0.00,,,0.00,meteohub,2013-02-12 09:50:00,
2013-02-12 02:55:00,-9.2,-13.0,30.58,SE,129,0.0,2.0,83,0.00,,,0.00,meteohub,2013-02-12 09:55:00,
2013-02-12 03:00:00,-9.0,-12.6,30.58,SE,129,1.0,2.0,84,0.00,,,0.00,meteohub,2013-02-12 10:00:00,
2013-02-12 03:05:00,-9.0,-13.0,30.58,SE,129,1.0,2.0,82,0.00,,,0.00,meteohub,2013-02-12 10:05:00,
2013-02-12 03:11:00,-9.6,-13.7,30.58,SE,129,1.0,2.0,81,0.00,,,0.00,meteohub,2013-02-12 10:11:00,
2013-02-12 03:16:00,-9.6,-13.5,30.58,SE,129,1.0,2.0,82,0.00,,,0.00,meteohub,2013-02-12 10:16:00,
2013-02-12 03:21:00,-9.4,-13.2,30.58,SE,129,1.0,2.0,83,0.00,,,0.00,meteohub,2013-02-12 10:21:00,
2013-02-12 03:26:00,-9.4,-13.4,30.58,SE,129,1.0,2.0,82,0.00,,,0.00,meteohub,2013-02-12 10:26:00,
2013-02-12 03:31:00,-9.2,-12.8,30.58,SE,129,1.0,2.0,84,0.00,,,0.00,meteohub,2013-02-12 10:31:00,
2013-02-12 03:36:00,-9.2,-13.2,30.58,SE,129,1.0,2.0,82,0.00,,,0.00,meteohub,2013-02-12 10:36:00,
2013-02-12 03:41:00,-9.4,-13.4,30.59,SE,129,0.0,2.0,82,0.00,,,0.00,meteohub,2013-02-12 10:41:00,
2013-02-12 03:46:00,-9.6,-13.5,30.59,SE,129,1.0,2.0,82,0.00,,,0.00,meteohub,2013-02-12 10:46:00,
2013-02-12 03:51:00,-9.4,-13.2,30.59,ENE,57,0.0,2.0,83,0.00,,,0.00,meteohub,2013-02-12 10:51:00,
2013-02-12 03:56:00,-9.8,-14.3,30.59,ESE,116,1.0,2.0,80,0.00,,,0.00,meteohub,2013-02-12 10:56:00,
2013-02-12 04:01:00,-10.1,-14.6,30.60,ESE,116,1.0,2.0,80,0.00,,,0.00,meteohub,2013-02-12 11:01:00,
2013-02-12 04:06:00,-10.3,-14.4,30.60,ESE,116,1.0,2.0,81,0.00,,,0.00,meteohub,2013-02-12 11:06:00,
2013-02-12 04:11:00,-10.5,-14.6,30.61,ESE,116,0.0,2.0,81,0.00,,,0.00,meteohub,2013-02-12 11:11:00,
2013-02-12 04:17:00,-10.8,-15.5,30.61,ESE,116,0.0,2.0,79,0.00,,,0.00,meteohub,2013-02-12 11:17:00,
2013-02-12 04:22:00,-11.0,-15.7,30.62,ESE,116,0.0,1.0,79,0.00,,,0.00,meteohub,2013-02-12 11:22:00,
2013-02-12 04:27:00,-11.6,-16.1,30.62,ESE,116,1.0,1.0,80,0.00,,,0.00,meteohub,2013-02-12 11:27:00,
2013-02-12 04:32:00,-11.9,-16.8,30.62,ESE,116,1.0,1.0,78,0.00,,,0.00,meteohub,2013-02-12 11:32:00,
2013-02-12 04:37:00,-12.3,-16.8,30.63,ESE,116,0.0,2.0,80,0.00,,,0.00,meteohub,2013-02-12 11:37:00,
2013-02-12 04:42:00,-12.3,-16.4,30.63,ESE,116,0.0,2.0,81,0.00,,,0.00,meteohub,2013-02-12 11:42:00,
2013-02-12 04:47:00,-12.5,-16.8,30.64,ESE,116,0.0,2.0,80,0.00,,,0.00,meteohub,2013-02-12 11:47:00,
2013-02-12 04:52:00,-12.6,-16.8,30.64,ESE,116,0.0,1.0,81,0.00,,,0.00,meteohub,2013-02-12 11:52:00,
2013-02-12 04:57:00,-12.6,-16.8,30.64,ESE,116,0.0,1.0,81,0.00,,,0.00,meteohub,2013-02-12 11:57:00,
2013-02-12 05:02:00,-12.8,-16.8,30.64,ESE,116,1.0,2.0,82,0.00,,,0.00,meteohub,2013-02-12 12:02:00,
2013-02-12 05:07:00,-12.6,-16.8,30.64,ESE,116,0.0,2.0,81,0.00,,,0.00,meteohub,2013-02-12 12:07:00,
2013-02-12 05:12:00,-12.6,-16.8,30.64,ESE,116,0.0,2.0,81,0.00,,,0.00,meteohub,2013-02-12 12:12:00,
2013-02-12 05:17:00,-12.5,-16.4,30.65,ESE,116,0.0,1.0,82,0.00,,,0.00,meteohub,2013-02-12 12:17:00,
2013-02-12 05:22:00,-12.5,-16.4,30.65,ESE,116,0.0,1.0,82,0.00,,,0.00,meteohub,2013-02-12 12:22:00,
2013-02-12 05:27:00,-12.5,-16.6,30.65,ESE,116,0.0,1.0,81,0.00,,,0.00,meteohub,2013-02-12 12:27:00,
2013-02-12 05:32:00,-12.6,-16.8,30.66,NNE,32,2.0,2.0,81,0.00,,,0.00,meteohub,2013-02-12 12:32:00,
2013-02-12 05:37:00,-12.6,-16.8,30.66,NE,36,0.0,2.0,81,0.00,,,0.00,meteohub,2013-02-12 12:37:00,
2013-02-12 05:42:00,-12.6,-16.8,30.65,NE,36,0.0,2.0,81,0.00,,,0.00,meteohub,2013-02-12 12:42:00,
2013-02-12 05:47:00,-12.6,-16.8,30.65,NE,36,1.0,2.0,81,0.00,,,0.00,meteohub,2013-02-12 12:47:00,
2013-02-12 05:52:00,-12.6,-16.2,30.65,NE,46,1.0,1.0,83,0.00,,,0.00,meteohub,2013-02-12 12:52:00,
2013-02-12 05:57:00,-12.5,-16.4,30.65,NE,53,0.0,1.0,82,0.00,,,0.00,meteohub,2013-02-12 12:57:00,
2013-02-12 06:02:00,-12.6,-17.0,30.65,NE,53,0.0,1.0,80,0.00,,,0.00,meteohub,2013-02-12 13:02:00,
2013-02-12 06:07:00,-12.8,-17.1,30.66,NE,53,0.0,1.0,80,0.00,,,0.00,meteohub,2013-02-12 13:07:00,
2013-02-12 06:12:00,-12.8,-16.8,30.66,NE,54,1.0,1.0,82,0.00,,,0.00,meteohub,2013-02-12 13:12:00,
2013-02-12 06:17:00,-12.5,-16.1,30.66,ENE,77,0.0,2.0,83,0.00,,,0.00,meteohub,2013-02-12 13:17:00,
2013-02-12 06:22:00,-12.6,-16.8,30.66,ENE,77,0.0,2.0,81,0.00,,,0.00,meteohub,2013-02-12 13:22:00,
2013-02-12 06:27:00,-12.6,-16.8,30.66,ESE,119,0.0,2.0,81,0.00,,,0.00,meteohub,2013-02-12 13:27:00,
2013-02-12 06:32:00,-12.6,-16.6,30.66,ESE,119,1.0,2.0,82,0.00,,,0.00,meteohub,2013-02-12 13:32:00,
2013-02-12 06:37:00,-12.5,-16.1,30.67,ESE,119,0.0,2.0,83,0.00,,,0.00,meteohub,2013-02-12 13:37:00,
2013-02-12 06:42:00,-11.7,-15.0,30.67,ESE,117,0.0,2.0,85,0.00,,,0.00,meteohub,2013-02-12 13:42:00,
2013-02-12 06:47:00,-11.4,-15.2,30.67,ESE,117,0.0,3.0,83,0.00,,,0.00,meteohub,2013-02-12 13:47:00,
2013-02-12 06:52:00,-11.2,-15.0,30.67,ESE,119,1.0,3.0,83,0.00,,,0.00,meteohub,2013-02-12 13:52:00,
2013-02-12 06:57:00,-11.2,-15.3,30.67,ESE,119,0.0,3.0,81,0.00,,,0.00,meteohub,2013-02-12 13:57:00,
2013-02-12 07:02:00,-11.7,-16.4,30.67,ESE,123,0.0,2.0,79,0.00,,,0.00,meteohub,2013-02-12 14:02:00,
2013-02-12 07:07:00,-11.7,-15.7,30.68,ENE,70,1.0,2.0,82,0.00,,,0.00,meteohub,2013-02-12 14:07:00,
2013-02-12 07:12:00,-11.6,-15.5,30.68,ENE,73,0.0,2.0,82,0.00,,,0.00,meteohub,2013-02-12 14:12:00,
2013-02-12 07:17:00,-11.4,-15.2,30.68,SE,128,1.0,2.0,83,0.00,,,0.00,meteohub,2013-02-12 14:17:00,
2013-02-12 07:22:00,-11.0,-14.8,30.69,SE,128,0.0,3.0,83,0.00,,,0.00,meteohub,2013-02-12 14:22:00,
2013-02-12 07:27:00,-11.0,-15.2,30.69,SE,128,1.0,3.0,81,0.00,,,0.00,meteohub,2013-02-12 14:27:00,
2013-02-12 07:32:00,-11.4,-15.5,30.69,ESE,117,0.0,2.0,81,0.00,,,0.00,meteohub,2013-02-12 14:32:00,
2013-02-12 07:37:00,-11.7,-16.4,30.69,ESE,117,1.0,1.0,79,0.00,,,0.00,meteohub,2013-02-12 14:37:00,
2013-02-12 07:42:00,-11.9,-16.4,30.69,ESE,117,0.0,1.0,80,0.00,,,0.00,meteohub,2013-02-12 14:42:00,
2013-02-12 07:47:00,-11.9,-15.9,30.69,ESE,117,0.0,1.0,82,0.00,,,0.00,meteohub,2013-02-12 14:47:00,
2013-02-12 07:52:00,-11.7,-15.7,30.69,ESE,117,0.0,1.0,82,0.00,,,0.00,meteohub,2013-02-12 14:52:00,
2013-02-12 07:57:00,-11.9,-15.9,30.70,ESE,117,1.0,1.0,82,0.00,,,0.00,meteohub,2013-02-12 14:57:00,
2013-02-12 08:02:00,-11.7,-15.5,30.69,ESE,117,0.0,1.0,83,0.00,,,0.00,meteohub,2013-02-12 15:02:00,
2013-02-12 08:07:00,-11.6,-15.3,30.69,ESE,117,1.0,1.0,83,0.00,,,0.00,meteohub,2013-02-12 15:07:00,
2013-02-12 08:12:00,-11.4,-14.8,30.70,ESE,108,0.0,2.0,84,0.00,,,0.00,meteohub,2013-02-12 15:12:00,
2013-02-12 08:17:00,-11.4,-15.3,30.70,ESE,108,0.0,2.0,82,0.00,,,0.00,meteohub,2013-02-12 15:17:00,
2013-02-12 08:22:00,-11.4,-15.5,30.71,ESE,108,0.0,2.0,81,0.00,,,0.00,meteohub,2013-02-12 15:22:00,
2013-02-12 08:27:00,-11.6,-15.7,30.71,ESE,108,1.0,1.0,81,0.00,,,0.00,meteohub,2013-02-12 15:27:00,
2013-02-12 08:32:00,-11.4,-15.5,30.71,ESE,108,0.0,1.0,81,0.00,,,0.00,meteohub,2013-02-12 15:32:00,
2013-02-12 08:37:00,-10.7,-14.4,30.71,ESE,108,0.0,1.0,83,0.00,,,0.00,meteohub,2013-02-12 15:37:00,
2013-02-12 08:42:00,-9.9,-13.7,30.71,ESE,108,1.0,1.0,83,0.00,,,0.00,meteohub,2013-02-12 15:42:00,
2013-02-12 08:47:00,-9.8,-13.5,30.71,ESE,108,0.0,1.0,83,0.00,,,0.00,meteohub,2013-02-12 15:47:00,
2013-02-12 08:52:00,-8.9,-12.6,30.72,ESE,108,0.0,1.0,83,0.00,,,0.00,meteohub,2013-02-12 15:52:00,
2013-02-12 08:57:00,-8.0,-11.2,30.72,ESE,108,0.0,1.0,85,0.00,,,0.00,meteohub,2013-02-12 15:57:00,
2013-02-12 09:02:00,-6.9,-9.9,30.72,ESE,108,0.0,2.0,86,0.00,,,0.00,meteohub,2013-02-12 16:02:00,
2013-02-12 09:07:00,-5.8,-8.7,30.72,ESE,108,1.0,2.0,87,0.00,,,0.00,meteohub,2013-02-12 16:07:00,
2013-02-12 09:12:00,-4.5,-7.2,30.72,SSE,149,1.0,2.0,88,0.00,,,0.00,meteohub,2013-02-12 16:12:00,
2013-02-12 09:17:00,-3.1,-5.4,30.72,SSE,155,0.0,2.0,89,0.00,,,0.00,meteohub,2013-02-12 16:17:00,
2013-02-12 09:22:00,-1.7,-4.4,30.72,SSW,194,1.0,2.0,88,0.00,,,0.00,meteohub,2013-02-12 16:22:00,
2013-02-12 09:27:00,0.0,-3.3,30.72,SW,232,1.0,2.0,86,0.00,,,0.00,meteohub,2013-02-12 16:27:00,
2013-02-12 09:32:00,1.0,-2.9,30.73,West,260,2.0,3.0,83,0.00,,,0.00,meteohub,2013-02-12 16:32:00,
2013-02-12 09:37:00,1.8,-2.4,30.72,WSW,242,2.0,3.0,82,0.00,,,0.00,meteohub,2013-02-12 16:37:00,
2013-02-12 09:42:00,2.5,-1.8,30.72,WSW,241,1.0,3.0,82,0.00,,,0.00,meteohub,2013-02-12 16:42:00,
2013-02-12 09:47:00,3.0,-2.0,30.72,West,275,0.0,3.0,79,0.00,,,0.00,meteohub,2013-02-12 16:47:00,
2013-02-12 09:52:00,3.6,-1.5,30.72,WSW,250,2.0,3.0,79,0.00,,,0.00,meteohub,2013-02-12 16:52:00,
2013-02-12 09:57:00,4.3,-0.8,30.72,WSW,250,2.0,3.0,79,0.00,,,0.00,meteohub,2013-02-12 16:57:00,
2013-02-12 10:03:00,4.8,-0.2,30.72,WSW,242,0.0,3.0,79,0.00,,,0.00,meteohub,2013-02-12 17:03:00,
2013-02-12 10:08:00,5.7,0.3,30.72,WSW,254,1.0,4.0,78,0.00,,,0.00,meteohub,2013-02-12 17:08:00,
2013-02-12 10:13:00,6.4,0.9,30.72,WSW,242,1.0,4.0,77,0.00,,,0.00,meteohub,2013-02-12 17:13:00,
2013-02-12 10:18:00,7.3,1.0,30.72,SW,219,4.0,5.0,75,0.00,,,0.00,meteohub,2013-02-12 17:18:00,
2013-02-12 10:23:00,8.4,1.6,30.72,WSW,238,2.0,5.0,73,0.00,,,0.00,meteohub,2013-02-12 17:23:00,
2013-02-12 10:28:00,9.3,1.8,30.72,WSW,242,4.0,6.0,71,0.00,,,0.00,meteohub,2013-02-12 17:28:00,
2013-02-12 10:33:00,9.9,2.1,30.72,WSW,243,3.0,6.0,70,0.00,,,0.00,meteohub,2013-02-12 17:33:00,
2013-02-12 10:38:00,10.2,1.0,30.72,SW,223,4.0,7.0,66,0.00,,,0.00,meteohub,2013-02-12 17:38:00,
2013-02-12 10:43:00,10.8,1.4,30.72,SW,228,2.0,9.0,65,0.00,,,0.00,meteohub,2013-02-12 17:43:00,
2013-02-12 10:48:00,10.9,0.1,30.72,SW,230,3.0,9.0,61,0.00,,,0.00,meteohub,2013-02-12 17:48:00,
2013-02-12 10:54:00,11.1,0.3,30.72,South,191,5.0,9.0,61,0.00,,,0.00,meteohub,2013-02-12 17:54:00,
2013-02-12 10:59:00,11.5,0.7,30.71,WSW,242,4.0,8.0,61,0.00,,,0.00,meteohub,2013-02-12 17:59:00,
2013-02-12 11:04:00,11.7,0.5,30.72,SW,222,7.0,8.0,60,0.00,,,0.00,meteohub,2013-02-12 18:04:00,
2013-02-12 11:09:00,11.8,1.0,30.71,SW,235,5.0,9.0,61,0.00,,,0.00,meteohub,2013-02-12 18:09:00,
2013-02-12 11:14:00,12.0,1.2,30.71,SW,233,4.0,9.0,61,0.00,,,0.00,meteohub,2013-02-12 18:14:00,
2013-02-12 11:19:00,12.6,1.9,30.71,SW,226,5.0,9.0,62,0.00,,,0.00,meteohub,2013-02-12 18:19:00,
2013-02-12 11:24:00,12.9,1.6,30.71,WSW,237,3.0,8.0,60,0.00,,,0.00,meteohub,2013-02-12 18:24:00,
2013-02-12 11:29:00,13.3,1.6,30.71,WSW,252,5.0,8.0,59,0.00,,,0.00,meteohub,2013-02-12 18:29:00,
2013-02-12 11:34:00,13.6,1.6,30.71,West,259,5.0,8.0,58,0.00,,,0.00,meteohub,2013-02-12 18:34:00,
2013-02-12 11:39:00,13.6,0.5,30.71,SSW,212,4.0,8.0,55,0.00,,,0.00,meteohub,2013-02-12 18:39:00,
2013-02-12 11:44:00,14.0,1.2,30.71,WSW,251,8.0,8.0,56,0.00,,,0.00,meteohub,2013-02-12 18:44:00,
2013-02-12 11:49:00,13.8,-0.2,30.71,SW,222,5.0,8.0,53,0.00,,,0.00,meteohub,2013-02-12 18:49:00,
2013-02-12 11:55:00,13.8,-0.2,30.70,SW,234,4.0,9.0,53,0.00,,,0.00,meteohub,2013-02-12 18:55:00,
2013-02-12 12:00:00,14.2,1.0,30.70,SW,223,5.0,10.0,55,0.00,,,0.00,meteohub,2013-02-12 19:00:00,
2013-02-12 12:05:00,14.5,0.5,30.70,SSW,205,5.0,10.0,53,0.00,,,0.00,meteohub,2013-02-12 19:05:00,
2013-02-12 12:10:00,15.3,0.9,30.69,WSW,237,1.0,10.0,52,0.00,,,0.00,meteohub,2013-02-12 19:10:00,
2013-02-12 12:15:00,15.4,-0.4,30.69,SW,216,6.0,10.0,49,0.00,,,0.00,meteohub,2013-02-12 19:15:00,
2013-02-12 12:20:00,15.6,-0.2,30.69,WSW,253,5.0,10.0,49,0.00,,,0.00,meteohub,2013-02-12 19:20:00,
2013-02-12 12:25:00,15.8,0.0,30.68,SW,221,2.0,10.0,49,0.00,,,0.00,meteohub,2013-02-12 19:25:00,
2013-02-12 12:30:00,16.2,0.0,30.68,NW,313,6.0,10.0,48,0.00,,,0.00,meteohub,2013-02-12 19:30:00,
2013-02-12 12:35:00,16.3,-1.3,30.68,WSW,243,3.0,9.0,45,0.00,,,0.00,meteohub,2013-02-12 19:35:00,
2013-02-12 12:40:00,16.9,0.1,30.68,SSW,207,5.0,8.0,47,0.00,,,0.00,meteohub,2013-02-12 19:40:00,
2013-02-12 12:45:00,17.2,-0.4,30.68,WNW,286,3.0,9.0,45,0.00,,,0.00,meteohub,2013-02-12 19:45:00,
2013-02-12 12:50:00,17.2,-0.9,30.68,West,275,6.0,9.0,44,0.00,,,0.00,meteohub,2013-02-12 19:50:00,
2013-02-12 12:56:00,17.6,-0.6,30.68,SSW,212,4.0,9.0,44,0.00,,,0.00,meteohub,2013-02-12 19:56:00,
2013-02-12 13:01:00,17.4,-0.8,30.67,SSW,209,4.0,9.0,44,0.00,,,0.00,meteohub,2013-02-12 20:01:00,
2013-02-12 13:06:00,17.2,-0.9,30.67,SSE,159,7.0,9.0,44,0.00,,,0.00,meteohub,2013-02-12 20:06:00,
2013-02-12 13:11:00,17.2,-0.9,30.66,South,172,4.0,11.0,44,0.00,,,0.00,meteohub,2013-02-12 20:11:00,
2013-02-12 13:16:00,17.4,-0.8,30.66,SSW,195,8.0,12.0,44,0.00,,,0.00,meteohub,2013-02-12 20:16:00,
2013-02-12 13:21:00,17.8,0.0,30.66,SW,224,6.0,12.0,45,0.00,,,0.00,meteohub,2013-02-12 20:21:00,
2013-02-12 13:26:00,17.6,0.3,30.66,SSW,204,3.0,12.0,46,0.00,,,0.00,meteohub,2013-02-12 20:26:00,
2013-02-12 13:31:00,18.0,0.1,30.66,SSW,198,3.0,15.0,45,0.00,,,0.00,meteohub,2013-02-12 20:31:00,
2013-02-12 13:36:00,18.5,1.2,30.66,SW,217,6.0,15.0,46,0.00,,,0.00,meteohub,2013-02-12 20:36:00,
2013-02-12 13:41:00,18.7,1.4,30.66,SW,221,6.0,15.0,46,0.00,,,0.00,meteohub,2013-02-12 20:41:00,
2013-02-12 13:46:00,18.3,0.5,30.66,SSW,198,6.0,12.0,45,0.00,,,0.00,meteohub,2013-02-12 20:46:00,
2013-02-12 13:51:00,18.3,0.5,30.66,SSW,201,9.0,12.0,45,0.00,,,0.00,meteohub,2013-02-12 20:51:00,
2013-02-12 13:56:00,18.1,0.3,30.65,SW,216,9.0,12.0,45,0.00,,,0.00,meteohub,2013-02-12 20:56:00,
2013-02-12 14:02:00,18.0,0.7,30.65,SW,219,6.0,12.0,46,0.00,,,0.00,meteohub,2013-02-12 21:02:00,
2013-02-12 14:07:00,18.0,0.1,30.65,SSW,201,11.0,12.0,45,0.00,,,0.00,meteohub,2013-02-12 21:07:00,
2013-02-12 14:12:00,18.1,1.2,30.65,South,182,6.0,14.0,47,0.00,,,0.00,meteohub,2013-02-12 21:12:00,
2013-02-12 14:17:00,18.3,0.5,30.65,SSW,204,10.0,15.0,45,0.00,,,0.00,meteohub,2013-02-12 21:17:00,
2013-02-12 14:22:00,18.1,0.3,30.65,WSW,240,8.0,15.0,45,0.00,,,0.00,meteohub,2013-02-12 21:22:00,
2013-02-12 14:27:00,18.3,1.0,30.65,SW,219,8.0,15.0,46,0.00,,,0.00,meteohub,2013-02-12 21:27:00,
2013-02-12 14:32:00,18.1,0.9,30.65,SW,221,6.0,13.0,46,0.00,,,0.00,meteohub,2013-02-12 21:32:00,
2013-02-12 14:37:00,18.1,1.2,30.65,SW,236,5.0,13.0,47,0.00,,,0.00,meteohub,2013-02-12 21:37:00,
2013-02-12 14:42:00,18.0,1.6,30.66,WSW,240,7.0,14.0,48,0.00,,,0.00,meteohub,2013-02-12 21:42:00,
2013-02-12 14:47:00,17.4,0.7,30.66,SW,217,6.0,14.0,47,0.00,,,0.00,meteohub,2013-02-12 21:47:00,
2013-02-12 14:52:00,16.7,0.9,30.66,SSW,202,6.0,14.0,49,0.00,,,0.00,meteohub,2013-02-12 21:52:00,
2013-02-12 14:57:00,16.0,0.1,30.66,SSW,199,6.0,14.0,49,0.00,,,0.00,meteohub,2013-02-12 21:57:00,
2013-02-12 15:02:00,15.4,0.1,30.66,SW,224,5.0,14.0,50,0.00,,,0.00,meteohub,2013-02-12 22:02:00,
2013-02-12 15:07:00,15.3,0.0,30.67,SSW,196,3.0,13.0,50,0.00,,,0.00,meteohub,2013-02-12 22:07:00,
2013-02-12 15:12:00,15.1,0.1,30.67,SSW,197,4.0,11.0,51,0.00,,,0.00,meteohub,2013-02-12 22:12:00,
2013-02-12 15:18:00,15.3,0.3,30.67,SW,219,2.0,11.0,51,0.00,,,0.00,meteohub,2013-02-12 22:18:00,
2013-02-12 15:23:00,15.3,0.9,30.68,SSW,199,1.0,11.0,52,0.00,,,0.00,meteohub,2013-02-12 22:23:00,
2013-02-12 15:28:00,15.4,0.5,30.69,SSW,194,6.0,11.0,51,0.00,,,0.00,meteohub,2013-02-12 22:28:00,
2013-02-12 15:33:00,15.4,-0.4,30.69,West,260,7.0,10.0,49,0.00,,,0.00,meteohub,2013-02-12 22:33:00,
2013-02-12 15:38:00,15.4,-0.4,30.69,SW,234,3.0,12.0,49,0.00,,,0.00,meteohub,2013-02-12 22:38:00,
2013-02-12 15:43:00,15.4,0.1,30.70,SW,228,6.0,12.0,50,0.00,,,0.00,meteohub,2013-02-12 22:43:00,
2013-02-12 15:48:00,15.4,0.1,30.70,South,172,6.0,12.0,50,0.00,,,0.00,meteohub,2013-02-12 22:48:00,
2013-02-12 15:53:00,15.6,0.7,30.70,SSE,155,4.0,11.0,51,0.00,,,0.00,meteohub,2013-02-12 22:53:00,
2013-02-12 15:59:00,15.8,0.5,30.70,SSW,213,4.0,9.0,50,0.00,,,0.00,meteohub,2013-02-12 22:59:00,
2013-02-12 16:04:00,16.0,0.7,30.70,South,190,3.0,9.0,50,0.00,,,0.00,meteohub,2013-02-12 23:04:00,
2013-02-12 16:09:00,16.0,0.7,30.70,WSW,244,4.0,8.0,50,0.00,,,0.00,meteohub,2013-02-12 23:09:00,
2013-02-12 16:14:00,16.2,0.9,30.71,SSW,213,3.0,7.0,50,0.00,,,0.00,meteohub,2013-02-12 23:14:00,
2013-02-12 16:19:00,16.3,0.5,30.70,SW,217,3.0,7.0,49,0.00,,,0.00,meteohub,2013-02-12 23:19:00,
2013-02-12 16:24:00,16.3,0.5,30.70,South,189,1.0,6.0,49,0.00,,,0.00,meteohub,2013-02-12 23:24:00,
2013-02-12 16:29:00,16.7,0.5,30.70,West,276,3.0,7.0,48,0.00,,,0.00,meteohub,2013-02-12 23:29:00,
2013-02-12 16:34:00,17.2,0.5,30.70,West,281,3.0,7.0,47,0.00,,,0.00,meteohub,2013-02-12 23:34:00,
2013-02-12 16:39:00,17.8,0.5,30.71,West,266,5.0,10.0,46,0.00,,,0.00,meteohub,2013-02-12 23:39:00,
2013-02-12 16:44:00,17.8,1.0,30.70,NW,307,3.0,10.0,47,0.00,,,0.00,meteohub,2013-02-12 23:44:00,
2013-02-12 16:49:00,17.8,1.0,30.71,West,278,3.0,8.0,47,0.00,,,0.00,meteohub,2013-02-12 23:49:00,
2013-02-12 16:54:00,17.4,0.7,30.70,WSW,254,1.0,8.0,47,0.00,,,0.00,meteohub,2013-02-12 23:54:00,
2013-02-12 17:00:00,16.9,0.5,30.71,South,182,1.0,8.0,48,0.00,,,0.00,meteohub,2013-02-13 00:00:00,
2013-02-12 17:05:00,16.3,0.5,30.71,West,280,1.0,8.0,49,0.00,,,0.00,meteohub,2013-02-13 00:05:00,
2013-02-12 17:10:00,15.4,0.5,30.71,West,269,1.0,8.0,51,0.00,,,0.00,meteohub,2013-02-13 00:10:00,
2013-02-12 17:15:00,14.0,0.0,30.71,West,269,1.0,3.0,53,0.00,,,0.00,meteohub,2013-02-13 00:15:00,
2013-02-12 17:20:00,13.1,-0.4,30.71,West,269,1.0,3.0,54,0.00,,,0.00,meteohub,2013-02-13 00:20:00,
2013-02-12 17:25:00,12.0,-0.2,30.71,West,278,0.0,2.0,57,0.00,,,0.00,meteohub,2013-02-13 00:25:00,
2013-02-12 17:30:00,10.9,-0.9,30.72,East,84,1.0,2.0,58,0.00,,,0.00,meteohub,2013-02-13 00:30:00,
2013-02-12 17:35:00,10.0,-0.8,30.72,SW,229,1.0,2.0,61,0.00,,,0.00,meteohub,2013-02-13 00:35:00,
2013-02-12 17:40:00,9.3,-1.1,30.72,SSW,205,2.0,2.0,62,0.00,,,0.00,meteohub,2013-02-13 00:40:00,
2013-02-12 17:45:00,8.8,-1.3,30.72,East,90,2.0,4.0,63,0.00,,,0.00,meteohub,2013-02-13 00:45:00,
2013-02-12 17:50:00,8.2,-1.5,30.73,East,90,1.0,4.0,64,0.00,,,0.00,meteohub,2013-02-13 00:50:00,
2013-02-12 17:55:00,7.7,-1.7,30.73,East,99,1.0,4.0,65,0.00,,,0.00,meteohub,2013-02-13 00:55:00,
2013-02-12 18:01:00,7.3,-1.7,30.73,East,99,1.0,2.0,66,0.00,,,0.00,meteohub,2013-02-13 01:01:00,
2013-02-12 18:06:00,7.0,-2.0,30.73,East,99,1.0,2.0,66,0.00,,,0.00,meteohub,2013-02-13 01:06:00,
2013-02-12 18:11:00,6.6,-2.0,30.73,SE,132,2.0,2.0,67,0.00,,,0.00,meteohub,2013-02-13 01:11:00,
2013-02-12 18:16:00,6.4,-2.2,30.74,SE,132,1.0,3.0,67,0.00,,,0.00,meteohub,2013-02-13 01:16:00,
2013-02-12 18:21:00,5.9,-2.4,30.74,SE,132,1.0,3.0,68,0.00,,,0.00,meteohub,2013-02-13 01:21:00,
2013-02-12 18:26:00,5.4,-2.6,30.74,SE,132,1.0,3.0,69,0.00,,,0.00,meteohub,2013-02-13 01:26:00,
2013-02-12 18:31:00,4.8,-3.1,30.74,SE,132,1.0,2.0,69,0.00,,,0.00,meteohub,2013-02-13 01:31:00,
2013-02-12 18:36:00,4.3,-3.3,30.75,SE,132,0.0,2.0,70,0.00,,,0.00,meteohub,2013-02-13 01:36:00,
2013-02-12 18:41:00,3.7,-3.3,30.75,SSE,155,2.0,4.0,72,0.00,,,0.00,meteohub,2013-02-13 01:41:00,
2013-02-12 18:46:00,3.7,-2.7,30.75,ESE,118,4.0,4.0,74,0.00,,,0.00,meteohub,2013-02-13 01:46:00,
2013-02-12 18:51:00,3.9,-2.6,30.75,SE,140,1.0,4.0,74,0.00,,,0.00,meteohub,2013-02-13 01:51:00,
2013-02-12 18:57:00,4.1,-2.4,30.76,ESE,115,1.0,4.0,74,0.00,,,0.00,meteohub,2013-02-13 01:57:00,
2013-02-12 19:02:00,4.3,-2.2,30.76,ESE,107,2.0,4.0,74,0.00,,,0.00,meteohub,2013-02-13 02:02:00,
2013-02-12 19:07:00,4.5,-1.7,30.76,ESE,122,2.0,4.0,75,0.00,,,0.00,meteohub,2013-02-13 02:07:00,
2013-02-12 19:12:00,4.6,-1.5,30.76,ESE,117,1.0,5.0,75,0.00,,,0.00,meteohub,2013-02-13 02:12:00,
2013-02-12 19:17:00,4.6,-2.0,30.76,ENE,70,2.0,5.0,73,0.00,,,0.00,meteohub,2013-02-13 02:17:00,
2013-02-12 19:22:00,4.6,-2.0,30.76,NE,53,2.0,5.0,73,0.00,,,0.00,meteohub,2013-02-13 02:22:00,
2013-02-12 19:27:00,4.5,-2.2,30.76,ESE,121,1.0,5.0,73,0.00,,,0.00,meteohub,2013-02-13 02:27:00,
2013-02-12 19:32:00,4.3,-2.4,30.76,NE,42,1.0,4.0,73,0.00,,,0.00,meteohub,2013-02-13 02:32:00,
2013-02-12 19:37:00,4.3,-2.2,30.77,East,95,1.0,4.0,74,0.00,,,0.00,meteohub,2013-02-13 02:37:00,
2013-02-12 19:42:00,4.1,-2.6,30.77,ESE,119,1.0,4.0,73,0.00,,,0.00,meteohub,2013-02-13 02:42:00,
2013-02-12 19:47:00,3.7,-2.9,30.77,ESE,121,1.0,3.0,73,0.00,,,0.00,meteohub,2013-02-13 02:47:00,
2013-02-12 19:52:00,3.6,-3.5,30.77,ESE,121,1.0,3.0,72,0.00,,,0.00,meteohub,2013-02-13 02:52:00,
2013-02-12 19:57:00,2.8,-3.8,30.77,ESE,121,1.0,3.0,73,0.00,,,0.00,meteohub,2013-02-13 02:57:00,
2013-02-12 20:02:00,2.7,-3.8,30.77,ESE,119,2.0,3.0,74,0.00,,,0.00,meteohub,2013-02-13 03:02:00,
2013-02-12 20:07:00,2.7,-3.5,30.77,East,100,2.0,3.0,75,0.00,,,0.00,meteohub,2013-02-13 03:07:00,
2013-02-12 20:12:00,2.5,-3.6,30.77,ESE,115,2.0,3.0,75,0.00,,,0.00,meteohub,2013-02-13 03:12:00,
2013-02-12 20:17:00,2.3,-3.8,30.78,East,101,1.0,3.0,75,0.00,,,0.00,meteohub,2013-02-13 03:17:00,
2013-02-12 20:22:00,2.1,-3.6,30.78,East,101,1.0,3.0,76,0.00,,,0.00,meteohub,2013-02-13 03:22:00,
2013-02-12 20:27:00,1.9,-3.6,30.78,SE,131,1.0,3.0,77,0.00,,,0.00,meteohub,2013-02-13 03:27:00,
2013-02-12 20:32:00,1.8,-3.8,30.79,East,93,1.0,2.0,77,0.00,,,0.00,meteohub,2013-02-13 03:32:00,
2013-02-12 20:37:00,1.6,-4.2,30.79,East,80,2.0,3.0,76,0.00,,,0.00,meteohub,2013-02-13 03:37:00,
2013-02-12 20:42:00,1.2,-4.0,30.79,East,88,1.0,3.0,78,0.00,,,0.00,meteohub,2013-02-13 03:42:00,
2013-02-12 20:47:00,1.2,-3.8,30.79,NE,40,3.0,3.0,79,0.00,,,0.00,meteohub,2013-02-13 03:47:00,
2013-02-12 20:52:00,1.2,-3.5,30.79,ENE,57,1.0,3.0,80,0.00,,,0.00,meteohub,2013-02-13 03:52:00,
2013-02-12 20:57:00,1.2,-3.5,30.80,East,100,2.0,3.0,80,0.00,,,0.00,meteohub,2013-02-13 03:57:00,
2013-02-12 21:02:00,1.0,-4.2,30.80,ESE,103,1.0,3.0,78,0.00,,,0.00,meteohub,2013-02-13 04:02:00,
2013-02-12 21:07:00,1.0,-4.0,30.79,ESE,103,1.0,3.0,79,0.00,,,0.00,meteohub,2013-02-13 04:07:00,
2013-02-12 21:12:00,0.9,-4.2,30.80,NE,40,3.0,3.0,79,0.00,,,0.00,meteohub,2013-02-13 04:12:00,
2013-02-12 21:17:00,0.9,-4.2,30.80,SE,127,3.0,4.0,79,0.00,,,0.00,meteohub,2013-02-13 04:17:00,
2013-02-12 21:22:00,0.5,-4.5,30.80,ENE,73,2.0,4.0,79,0.00,,,0.00,meteohub,2013-02-13 04:22:00,
2013-02-12 21:27:00,0.7,-4.0,30.80,NE,46,1.0,4.0,80,0.00,,,0.00,meteohub,2013-02-13 04:27:00,
2013-02-12 21:32:00,0.7,-4.4,30.80,NE,40,1.0,4.0,79,0.00,,,0.00,meteohub,2013-02-13 04:32:00,
2013-02-12 21:37:00,0.5,-4.5,30.80,NE,44,1.0,3.0,79,0.00,,,0.00,meteohub,2013-02-13 04:37:00,
2013-02-12 21:42:00,0.3,-4.4,30.80,ESE,115,2.0,3.0,80,0.00,,,0.00,meteohub,2013-02-13 04:42:00,
2013-02-12 21:47:00,0.1,-4.5,30.81,ESE,115,0.0,3.0,80,0.00,,,0.00,meteohub,2013-02-13 04:47:00,
2013-02-12 21:52:00,0.1,-4.5,30.81,NNE,28,1.0,3.0,80,0.00,,,0.00,meteohub,2013-02-13 04:52:00,
2013-02-12 21:57:00,0.0,-4.5,30.80,ESE,120,0.0,2.0,81,0.00,,,0.00,meteohub,2013-02-13 04:57:00,
2013-02-12 22:00:00,0.1,-4.0,30.81,NNE,30,0.0,2.0,82,0.00,,,0.00,meteohub,2013-02-13 05:00:00,
2013-02-12 22:01:00,0.1,-4.0,30.81,NNE,30,0.0,4.0,82,0.00,,,0.00,meteohub,2013-02-13 05:01:00,
2013-02-12 22:02:00,0.1,-4.0,30.81,NNE,30,0.0,4.0,82,0.00,,,0.00,meteohub,2013-02-13 05:02:00,
2013-02-12 22:07:00,0.5,-3.6,30.81,NE,45,1.0,4.0,82,0.00,,,0.00,meteohub,2013-02-13 05:07:00,
2013-02-12 22:12:00,0.7,-3.8,30.81,NE,45,0.0,4.0,81,0.00,,,0.00,meteohub,2013-02-13 05:12:00,
2013-02-12 22:17:00,0.9,-3.3,30.81,NE,45,0.0,2.0,82,0.00,,,0.00,meteohub,2013-02-13 05:17:00,
2013-02-12 22:22:00,1.2,-2.9,30.81,NE,45,0.0,2.0,82,0.00,,,0.00,meteohub,2013-02-13 05:22:00,
2013-02-12 22:27:00,1.4,-3.1,30.81,NE,45,0.0,2.0,81,0.00,,,0.00,meteohub,2013-02-13 05:27:00,
2013-02-12 22:33:00,1.6,-2.9,30.81,NE,45,0.0,2.0,81,0.00,,,0.00,meteohub,2013-02-13 05:33:00,
2013-02-12 22:38:00,1.8,-2.7,30.81,NE,45,0.0,1.0,81,0.00,,,0.00,meteohub,2013-02-13 05:38:00,
2013-02-12 22:43:00,1.8,-2.9,30.81,NE,45,1.0,1.0,80,0.00,,,0.00,meteohub,2013-02-13 05:43:00,
2013-02-12 22:48:00,1.9,-2.7,30.81,NE,46,0.0,2.0,80,0.00,,,0.00,meteohub,2013-02-13 05:48:00,
2013-02-12 22:53:00,2.1,-2.4,30.81,NE,46,1.0,2.0,81,0.00,,,0.00,meteohub,2013-02-13 05:53:00,
2013-02-12 22:58:00,2.7,-1.7,30.82,NE,46,0.0,2.0,82,0.00,,,0.00,meteohub,2013-02-13 05:58:00,
2013-02-12 23:03:00,2.7,-2.0,30.82,NE,47,1.0,2.0,80,0.00,,,0.00,meteohub,2013-02-13 06:03:00,
2013-02-12 23:08:00,2.8,-1.8,30.82,NE,47,0.0,2.0,80,0.00,,,0.00,meteohub,2013-02-13 06:08:00,
2013-02-12 23:13:00,3.0,-1.7,30.82,NE,47,0.0,2.0,80,0.00,,,0.00,meteohub,2013-02-13 06:13:00,
2013-02-12 23:18:00,3.4,-1.1,30.82,NE,47,1.0,1.0,81,0.00,,,0.00,meteohub,2013-02-13 06:18:00,
2013-02-12 23:23:00,3.7,-0.8,30.82,NE,47,0.0,2.0,81,0.00,,,0.00,meteohub,2013-02-13 06:23:00,
2013-02-12 23:28:00,3.9,-0.9,30.82,NE,47,0.0,2.0,80,0.00,,,0.00,meteohub,2013-02-13 06:28:00,
2013-02-12 23:34:00,3.9,-0.9,30.83,NE,47,1.0,2.0,80,0.00,,,0.00,meteohub,2013-02-13 06:34:00,
2013-02-12 23:39:00,4.3,-0.6,30.83,NE,47,0.0,2.0,80,0.00,,,0.00,meteohub,2013-02-13 06:39:00,
2013-02-12 23:44:00,4.3,-0.6,30.84,NE,47,1.0,1.0,80,0.00,,,0.00,meteohub,2013-02-13 06:44:00,
2013-02-12 23:49:00,4.5,-0.6,30.84,NE,46,0.0,1.0,79,0.00,,,0.00,meteohub,2013-02-13 06:49:00,
2013-02-12 23:54:00,4.5,-0.6,30.84,NE,46,0.0,1.0,79,0.00,,,0.00,meteohub,2013-02-13 06:54:00,
2013-02-12 23:59:00,4.5,-0.4,30.84,NE,46,0.0,1.0,80,0.00,,,0.00,meteohub,2013-02-13 06:59:00,